createdAt,value
2022-08-31T00:02:04.150Z,102100.63
2022-08-31T00:04:33.053Z,102090.84
2022-08-31T00:07:01.362Z,102098.31
2022-08-31T00:09:32.921Z,102091.03
2022-08-31T00:12:01.691Z,102094.84
2022-08-31T00:14:29.991Z,102096.69
2022-08-31T00:16:58.397Z,102085.91
2022-08-31T00:19:26.715Z,102087.78
2022-08-31T00:21:54.991Z,102092.31
2022-08-31T00:24:23.427Z,102096.00
2022-08-31T00:26:53.085Z,102090.91
2022-08-31T00:29:21.570Z,102103.41
2022-08-31T00:31:49.942Z,102095.41
2022-08-31T00:34:18.264Z,102091.66
2022-08-31T00:36:47.387Z,102083.63
2022-08-31T00:39:15.844Z,102080.22
2022-08-31T00:41:44.376Z,102094.41
2022-08-31T00:44:14.035Z,102090.16
2022-08-31T00:46:44.837Z,102093.72
2022-08-31T00:49:18.928Z,102093.84
2022-08-31T00:51:51.977Z,102093.84
2022-08-31T00:54:26.835Z,102084.94
2022-08-31T00:56:55.651Z,102094.91
2022-08-31T00:59:26.785Z,102093.91
2022-08-31T01:01:55.747Z,102093.84
2022-08-31T01:04:24.617Z,102085.72
2022-08-31T01:06:53.614Z,102088.31
2022-08-31T01:09:24.941Z,102097.25
2022-08-31T01:11:53.324Z,102087.38
2022-08-31T01:14:22.140Z,102083.94
2022-08-31T01:16:55.738Z,102089.34
2022-08-31T01:19:34.181Z,102089.31
2022-08-31T01:22:13.993Z,102087.63
2022-08-31T01:24:47.712Z,102087.56
2022-08-31T01:27:23.405Z,102086.84
2022-08-31T01:29:51.755Z,102085.41
2022-08-31T01:32:20.010Z,102091.81
2022-08-31T01:34:48.276Z,102095.22
2022-08-31T01:37:17.298Z,102088.06
2022-08-31T01:39:46.961Z,102088.94
2022-08-31T01:42:15.201Z,102096.28
2022-08-31T01:44:43.524Z,102093.53
2022-08-31T01:47:12.371Z,102080.34
2022-08-31T01:49:40.888Z,102092.84
2022-08-31T01:52:09.891Z,102071.69
2022-08-31T01:54:38.202Z,102048.13
2022-08-31T01:57:10.543Z,102094.00
2022-08-31T02:00:01.666Z,102095.75
2022-08-31T02:02:47.196Z,102061.34
2022-08-31T02:05:16.089Z,102092.22
2022-08-31T02:07:46.591Z,102088.84
2022-08-31T02:10:15.842Z,102088.78
2022-08-31T02:12:45.627Z,102010.13
2022-08-31T02:15:14.347Z,102093.16
2022-08-31T02:17:42.705Z,102086.78
2022-08-31T02:20:15.400Z,102088.78
2022-08-31T02:22:44.585Z,102093.47
2022-08-31T02:25:13.071Z,102092.66
2022-08-31T02:27:41.827Z,102087.28
2022-08-31T02:30:16.557Z,102077.53
2022-08-31T02:32:46.043Z,102085.59
2022-08-31T02:35:14.633Z,102089.34
2022-08-31T02:37:43.328Z,102082.00
2022-08-31T02:40:13.989Z,102090.38
2022-08-31T02:42:53.516Z,102095.75
2022-08-31T02:45:26.516Z,102084.16
2022-08-31T02:48:00.468Z,102104.00
2022-08-31T02:50:52.062Z,102089.63
2022-08-31T02:53:23.442Z,102082.63
2022-08-31T02:55:52.254Z,102086.28
2022-08-31T02:58:24.119Z,102088.97
2022-08-31T03:00:54.560Z,102086.41
2022-08-31T03:03:23.343Z,102080.31
2022-08-31T03:05:52.215Z,102090.09
2022-08-31T03:08:20.667Z,102090.00
2022-08-31T03:10:51.516Z,102093.53
2022-08-31T03:13:19.982Z,102094.81
2022-08-31T03:15:48.733Z,102089.44
2022-08-31T03:18:19.465Z,102087.56
2022-08-31T03:20:48.199Z,102087.56
2022-08-31T03:23:16.647Z,102092.00
2022-08-31T03:25:45.095Z,102087.78
2022-08-31T03:28:14.019Z,102097.41
2022-08-31T03:30:46.747Z,102093.81
2022-08-31T03:33:15.320Z,102101.94
2022-08-31T03:35:46.147Z,102105.50
2022-08-31T03:38:16.950Z,102096.56
2022-08-31T03:40:46.178Z,102091.38
2022-08-31T03:43:14.987Z,102101.88
2022-08-31T03:45:45.158Z,102101.06
2022-08-31T03:48:13.901Z,102097.53
2022-08-31T03:50:46.684Z,102104.72
2022-08-31T03:53:22.870Z,102102.03
2022-08-31T03:56:00.985Z,102075.78
2022-08-31T03:58:32.595Z,102112.97
2022-08-31T04:01:02.104Z,102110.25
2022-08-31T04:03:50.317Z,102113.97
2022-08-31T04:06:38.561Z,102111.28
2022-08-31T04:09:26.690Z,102111.16
2022-08-31T04:12:16.030Z,102108.56
2022-08-31T04:15:20.546Z,102107.75
2022-08-31T04:17:56.987Z,102108.72
2022-08-31T04:20:45.759Z,102104.38
2022-08-31T04:23:15.544Z,102112.31
2022-08-31T04:25:49.139Z,102109.69
2022-08-31T04:28:17.473Z,102105.22
2022-08-31T04:30:48.452Z,102108.03
2022-08-31T04:33:18.221Z,102105.34
2022-08-31T04:35:46.902Z,102052.31
2022-08-31T04:38:16.644Z,102116.13
2022-08-31T04:40:47.164Z,102115.38
2022-08-31T04:43:15.763Z,102121.59
2022-08-31T04:45:46.082Z,102089.50
2022-08-31T04:48:15.186Z,102109.31
2022-08-31T04:50:44.528Z,102120.84
2022-08-31T04:53:13.111Z,102121.66
2022-08-31T04:55:44.555Z,102120.69
2022-08-31T04:58:15.251Z,102119.03
2022-08-31T05:00:44.555Z,102115.69
2022-08-31T05:03:15.734Z,102121.78
2022-08-31T05:05:46.752Z,102105.72
2022-08-31T05:08:15.164Z,102127.97
2022-08-31T05:10:48.517Z,102119.88
2022-08-31T05:13:17.034Z,102134.19
2022-08-31T05:15:46.388Z,102129.94
2022-08-31T05:18:21.165Z,102127.16
2022-08-31T05:20:56.002Z,102129.03
2022-08-31T05:23:24.659Z,102109.56
2022-08-31T05:25:54.372Z,102130.78
2022-08-31T05:28:23.565Z,102125.25
2022-08-31T05:30:52.073Z,102127.03
2022-08-31T05:33:45.053Z,102135.88
2022-08-31T05:36:16.198Z,102136.59
2022-08-31T05:38:45.790Z,102132.03
2022-08-31T05:41:16.932Z,102129.03
2022-08-31T05:43:45.448Z,102141.50
2022-08-31T05:46:16.170Z,102141.16
2022-08-31T05:48:49.119Z,102138.38
2022-08-31T05:51:19.942Z,102146.09
2022-08-31T05:53:48.620Z,102145.75
2022-08-31T05:56:23.408Z,102145.38
2022-08-31T05:58:55.024Z,102155.66
2022-08-31T06:01:30.325Z,102171.03
2022-08-31T06:04:20.481Z,102131.56
2022-08-31T06:06:48.965Z,102148.84
2022-08-31T06:09:21.529Z,102155.47
2022-08-31T06:11:54.080Z,102133.31
2022-08-31T06:14:23.836Z,102152.41
2022-08-31T06:16:54.192Z,102153.44
2022-08-31T06:19:24.121Z,102156.81
2022-08-31T06:21:52.630Z,102152.16
2022-08-31T06:24:26.916Z,102160.69
2022-08-31T06:27:00.034Z,102156.97
2022-08-31T06:29:32.322Z,102152.75
2022-08-31T06:32:08.005Z,102154.69
2022-08-31T06:34:40.778Z,102157.06
2022-08-31T06:37:18.304Z,102155.88
2022-08-31T06:40:02.960Z,102159.88
2022-08-31T06:42:44.063Z,102155.09
2022-08-31T06:45:34.367Z,102155.22
2022-08-31T06:48:21.302Z,102168.13
2022-08-31T06:50:57.959Z,102162.19
2022-08-31T06:53:27.243Z,102176.31
2022-08-31T06:56:21.780Z,102162.16
2022-08-31T06:59:15.020Z,102168.50
2022-08-31T07:01:52.473Z,102161.56
2022-08-31T07:04:26.264Z,102176.81
2022-08-31T07:06:55.343Z,102151.09
2022-08-31T07:09:23.834Z,102183.13
2022-08-31T07:11:53.867Z,102191.25
2022-08-31T07:14:26.395Z,102193.41
2022-08-31T07:16:59.099Z,102191.94
2022-08-31T07:19:28.207Z,102186.53
2022-08-31T07:22:00.388Z,102195.75
2022-08-31T07:24:31.577Z,102193.44
2022-08-31T07:27:04.285Z,102196.44
2022-08-31T07:29:45.740Z,102184.59
2022-08-31T07:32:18.287Z,102200.19
2022-08-31T07:34:50.767Z,102184.50
2022-08-31T07:37:51.459Z,102204.75
2022-08-31T07:40:42.494Z,102193.88
2022-08-31T07:43:13.138Z,102195.50
2022-08-31T07:45:43.966Z,102199.13
2022-08-31T07:48:16.139Z,102200.66
2022-08-31T07:51:15.107Z,102193.91
2022-08-31T07:54:04.657Z,102197.94
2022-08-31T07:56:43.365Z,102199.28
2022-08-31T07:59:15.093Z,102189.44
2022-08-31T08:01:47.090Z,102204.53
2022-08-31T08:04:25.424Z,102196.28
2022-08-31T08:07:05.963Z,102205.59
2022-08-31T08:09:55.615Z,102201.41
2022-08-31T08:13:00.787Z,102208.59
2022-08-31T08:15:57.507Z,102195.84
2022-08-31T08:18:53.442Z,102209.75
2022-08-31T08:21:27.885Z,102211.19
2022-08-31T08:23:56.843Z,102220.22
2022-08-31T08:26:34.142Z,102213.19
2022-08-31T08:29:08.428Z,102211.28
2022-08-31T08:31:46.196Z,102208.75
2022-08-31T08:34:16.063Z,102218.31
2022-08-31T08:36:45.214Z,102220.31
2022-08-31T08:39:13.747Z,102210.97
2022-08-31T08:41:57.439Z,102215.13
2022-08-31T08:44:29.324Z,102214.47
2022-08-31T08:47:02.355Z,102210.69
2022-08-31T08:49:49.843Z,102222.50
2022-08-31T08:52:27.609Z,102203.06
2022-08-31T08:55:01.051Z,102219.19
2022-08-31T08:57:34.592Z,102215.84
2022-08-31T09:00:11.118Z,102234.47
2022-08-31T09:02:49.864Z,102222.44
2022-08-31T09:05:55.009Z,102232.31
2022-08-31T09:09:08.820Z,102233.25
2022-08-31T09:11:56.195Z,102230.78
2022-08-31T09:14:49.718Z,102234.31
2022-08-31T09:17:37.948Z,102234.72
2022-08-31T09:20:09.229Z,102233.22
2022-08-31T09:22:50.098Z,102212.50
2022-08-31T09:25:28.448Z,102223.97
2022-08-31T09:28:16.414Z,102238.56
2022-08-31T09:30:52.823Z,102224.19
2022-08-31T09:33:25.040Z,102235.44
2022-08-31T09:35:56.846Z,102218.56
2022-08-31T09:38:33.014Z,102226.94
2022-08-31T09:41:03.658Z,102232.31
2022-08-31T09:43:38.495Z,102219.56
2022-08-31T09:46:11.094Z,102209.97
2022-08-31T09:48:51.441Z,102218.28
2022-08-31T09:51:28.197Z,102188.56
2022-08-31T09:54:22.652Z,102209.50
2022-08-31T09:56:58.585Z,102214.09
2022-08-31T09:59:38.581Z,102214.75
2022-08-31T10:02:12.923Z,102212.63
2022-08-31T10:04:52.312Z,102212.56
2022-08-31T10:07:37.696Z,102215.03
2022-08-31T10:10:29.872Z,102210.09
2022-08-31T10:13:05.260Z,102204.84
2022-08-31T10:15:42.059Z,102206.53
2022-08-31T10:18:17.148Z,102118.53
2022-08-31T10:20:51.720Z,102206.16
2022-08-31T10:23:33.312Z,102215.19
2022-08-31T10:26:11.498Z,102190.56
2022-08-31T10:28:50.877Z,102194.63
2022-08-31T10:31:25.070Z,102189.63
2022-08-31T10:34:17.974Z,102200.19
2022-08-31T10:36:50.150Z,102193.31
2022-08-31T10:39:29.660Z,102186.91
2022-08-31T10:42:05.359Z,102181.84
2022-08-31T10:44:40.556Z,102167.66
2022-08-31T10:47:21.562Z,102178.38
2022-08-31T10:50:04.655Z,102172.91
2022-08-31T10:52:38.280Z,102161.19
2022-08-31T10:55:30.034Z,102173.34
2022-08-31T10:58:21.140Z,102171.03
2022-08-31T11:00:55.641Z,102171.41
2022-08-31T11:03:49.826Z,102171.78
2022-08-31T11:06:24.933Z,102173.13
2022-08-31T11:09:01.227Z,102175.50
2022-08-31T11:11:42.478Z,102173.06
2022-08-31T11:14:44.971Z,102151.63
2022-08-31T11:17:43.969Z,102116.97
2022-08-31T11:20:39.916Z,102168.66
2022-08-31T11:23:42.192Z,102173.97
2022-08-31T11:26:46.225Z,102169.63
2022-08-31T11:29:31.136Z,102173.44
2022-08-31T11:32:07.297Z,102174.16
2022-08-31T11:34:48.847Z,102164.31
2022-08-31T11:37:55.530Z,102160.69
2022-08-31T11:41:10.904Z,102159.94
2022-08-31T11:43:53.843Z,102127.88
2022-08-31T11:47:06.836Z,102138.31
2022-08-31T11:49:44.288Z,102027.44
2022-08-31T11:52:47.017Z,102087.22
2022-08-31T11:55:30.625Z,102148.06
2022-08-31T11:58:31.679Z,102132.50
2022-08-31T12:01:09.380Z,102130.91
2022-08-31T12:03:52.564Z,102113.16
2022-08-31T12:07:11.097Z,102126.19
2022-08-31T12:10:32.479Z,102132.38
2022-08-31T12:13:30.970Z,102116.59
2022-08-31T12:16:30.032Z,102113.03
2022-08-31T12:19:44.630Z,102130.97
2022-08-31T12:23:31.324Z,102123.78
2022-08-31T12:26:24.745Z,102115.19
2022-08-31T12:29:25.111Z,102106.44
2022-08-31T12:32:32.777Z,102081.16
2022-08-31T12:35:13.157Z,102107.22
2022-08-31T12:37:42.227Z,102107.66
2022-08-31T12:40:19.399Z,102084.72
2022-08-31T12:42:57.267Z,102109.88
2022-08-31T12:46:15.820Z,102095.47
2022-08-31T12:49:07.894Z,102018.16
2022-08-31T12:51:45.661Z,102101.47
2022-08-31T12:54:52.337Z,102097.63
2022-08-31T12:57:42.485Z,102090.25
2022-08-31T13:00:18.028Z,102098.13
2022-08-31T13:02:51.064Z,102079.59
2022-08-31T13:05:23.930Z,102003.59
2022-08-31T13:07:54.676Z,102079.91
2022-08-31T13:10:32.541Z,102087.56
2022-08-31T13:13:04.483Z,102078.84
2022-08-31T13:15:39.598Z,102078.28
2022-08-31T13:18:13.290Z,102079.69
2022-08-31T13:20:44.349Z,102067.28
2022-08-31T13:23:28.616Z,102074.56
2022-08-31T13:26:19.871Z,102003.84
2022-08-31T13:28:53.912Z,102070.53
2022-08-31T13:31:25.811Z,102068.22
2022-08-31T13:33:56.890Z,102066.53
2022-08-31T13:36:32.822Z,102061.41
2022-08-31T13:39:08.706Z,102034.97
2022-08-31T13:41:40.174Z,102015.19
2022-08-31T13:44:13.162Z,102063.84
2022-08-31T13:47:00.213Z,102056.41
2022-08-31T13:49:35.561Z,102055.00
2022-08-31T13:52:06.299Z,102059.72
2022-08-31T13:54:37.241Z,102044.41
2022-08-31T13:57:22.616Z,102042.19
2022-08-31T13:59:51.044Z,102027.94
2022-08-31T14:02:37.205Z,102041.38
2022-08-31T14:05:10.020Z,102050.41
2022-08-31T14:07:57.896Z,102049.06
2022-08-31T14:10:35.093Z,102055.75
2022-08-31T14:13:12.030Z,102053.19
2022-08-31T14:15:50.326Z,102056.03
2022-08-31T14:18:27.330Z,102050.84
2022-08-31T14:21:28.114Z,102052.34
2022-08-31T14:24:01.266Z,102059.31
2022-08-31T14:26:34.727Z,102052.16
2022-08-31T14:29:10.560Z,102046.75
2022-08-31T14:31:52.306Z,102044.53
2022-08-31T14:34:25.881Z,102036.75
2022-08-31T14:37:02.130Z,102027.81
2022-08-31T14:39:33.031Z,102026.75
2022-08-31T14:42:07.383Z,102038.47
2022-08-31T14:44:39.526Z,102037.88
2022-08-31T14:47:09.587Z,102027.13
2022-08-31T14:49:39.935Z,101976.06
2022-08-31T14:52:09.531Z,102022.19
2022-08-31T14:54:38.230Z,102031.84
2022-08-31T14:57:12.731Z,102030.72
2022-08-31T14:59:44.697Z,102026.84
2022-08-31T15:02:16.457Z,102030.31
2022-08-31T15:04:46.016Z,101999.94
2022-08-31T15:07:15.882Z,102005.19
2022-08-31T15:09:46.882Z,102033.47
2022-08-31T15:12:18.060Z,102030.66
2022-08-31T15:14:47.391Z,102022.91
2022-08-31T15:17:19.800Z,102023.78
2022-08-31T15:19:55.145Z,102027.94
2022-08-31T15:22:25.652Z,102052.78
2022-08-31T15:24:54.018Z,102021.63
2022-08-31T15:27:25.542Z,102015.56
2022-08-31T15:30:02.564Z,102018.06
2022-08-31T15:32:31.549Z,102028.81
2022-08-31T15:35:00.249Z,102026.56
2022-08-31T15:37:32.668Z,102016.19
2022-08-31T15:40:04.033Z,101963.56
2022-08-31T15:42:39.898Z,102018.38
2022-08-31T15:45:10.211Z,102007.53
2022-08-31T15:47:59.183Z,102013.50
2022-08-31T15:50:31.511Z,102011.19
2022-08-31T15:53:09.005Z,102003.59
2022-08-31T15:55:40.693Z,102007.66
2022-08-31T15:58:12.642Z,102006.41
2022-08-31T16:00:42.052Z,102014.47
2022-08-31T16:03:11.381Z,101997.91
2022-08-31T16:05:39.927Z,101959.72
2022-08-31T16:08:11.253Z,101992.75
2022-08-31T16:10:49.286Z,101959.94
2022-08-31T16:13:19.383Z,101993.53
2022-08-31T16:15:52.228Z,101974.47
2022-08-31T16:18:22.435Z,101985.81
2022-08-31T16:20:51.851Z,101991.72
2022-08-31T16:23:22.102Z,101989.56
2022-08-31T16:25:50.499Z,101996.81
2022-08-31T16:28:21.861Z,101990.25
2022-08-31T16:30:51.853Z,101985.47
2022-08-31T16:33:20.951Z,101980.69
2022-08-31T16:35:49.717Z,102000.22
2022-08-31T16:38:18.443Z,101994.56
2022-08-31T16:40:47.118Z,101989.38
2022-08-31T16:43:15.667Z,101967.88
2022-08-31T16:45:45.655Z,101982.97
2022-08-31T16:48:31.530Z,101992.13
2022-08-31T16:51:02.617Z,101992.78
2022-08-31T16:53:32.035Z,101963.47
2022-08-31T16:56:00.593Z,102014.44
2022-08-31T16:58:50.718Z,101986.59
2022-08-31T17:01:23.193Z,101968.69
2022-08-31T17:03:55.843Z,101983.47
2022-08-31T17:06:25.163Z,101993.91
2022-08-31T17:08:55.402Z,101989.38
2022-08-31T17:11:32.131Z,101995.19
2022-08-31T17:14:03.128Z,102003.25
2022-08-31T17:16:37.153Z,101988.03
2022-08-31T17:19:11.328Z,101996.75
2022-08-31T17:21:49.687Z,101991.94
2022-08-31T17:24:21.549Z,101920.66
2022-08-31T17:26:52.091Z,101983.50
2022-08-31T17:29:22.458Z,101970.28
2022-08-31T17:31:53.607Z,101989.94
2022-08-31T17:34:28.264Z,101985.44
2022-08-31T17:36:59.889Z,101987.69
2022-08-31T17:39:29.397Z,101991.81
2022-08-31T17:41:58.070Z,101989.63
2022-08-31T17:44:30.979Z,101980.75
2022-08-31T17:47:03.610Z,102004.47
2022-08-31T17:49:37.934Z,101996.84
2022-08-31T17:52:08.455Z,101971.47
2022-08-31T17:54:42.077Z,101998.19
2022-08-31T17:57:14.024Z,101989.16
2022-08-31T17:59:46.669Z,101991.88
2022-08-31T18:02:18.971Z,101996.97
2022-08-31T18:04:48.887Z,101995.97
2022-08-31T18:07:17.507Z,102000.66
2022-08-31T18:09:46.974Z,101992.94
2022-08-31T18:12:18.087Z,101998.91
2022-08-31T18:14:46.516Z,101998.19
2022-08-31T18:17:17.147Z,101962.97
2022-08-31T18:19:45.885Z,102013.66
2022-08-31T18:22:15.236Z,101979.41
2022-08-31T18:24:44.397Z,102014.94
2022-08-31T18:27:16.179Z,102014.19
2022-08-31T18:29:45.774Z,101975.91
2022-08-31T18:32:15.941Z,102013.84
2022-08-31T18:34:48.613Z,102015.53
2022-08-31T18:37:22.174Z,102008.00
2022-08-31T18:40:08.820Z,102027.06
2022-08-31T18:42:56.981Z,102030.81
2022-08-31T18:45:26.342Z,102037.22
2022-08-31T18:50:48.408Z,102032.88
2022-08-31T18:53:28.624Z,102037.53
2022-08-31T18:56:07.990Z,102052.88
2022-08-31T18:58:38.342Z,102037.88
2022-08-31T19:01:10.331Z,102046.72
2022-08-31T19:03:41.140Z,102037.81
2022-08-31T19:06:11.179Z,102035.56
2022-08-31T19:08:39.721Z,102056.88
2022-08-31T19:11:08.943Z,102004.97
2022-08-31T19:13:38.778Z,102050.97
2022-08-31T19:16:15.594Z,102057.25
2022-08-31T19:18:48.418Z,102056.63
2022-08-31T19:21:21.595Z,102055.69
2022-08-31T19:23:51.771Z,102048.72
2022-08-31T19:26:30.032Z,102056.09
2022-08-31T19:28:59.836Z,102082.41
2022-08-31T19:31:30.139Z,102059.91
2022-08-31T19:33:59.936Z,102051.34
2022-08-31T19:36:28.404Z,102055.09
2022-08-31T19:38:57.501Z,102054.25
2022-08-31T19:41:27.731Z,102048.56
2022-08-31T19:44:07.594Z,102045.59
2022-08-31T19:46:37.825Z,102058.84
2022-08-31T19:49:09.587Z,102062.78
2022-08-31T19:51:40.368Z,102060.94
2022-08-31T19:54:11.485Z,102024.16
2022-08-31T19:56:42.889Z,102058.44
2022-08-31T19:59:12.117Z,102067.97
2022-08-31T20:01:41.608Z,102061.59
2022-08-31T20:04:16.683Z,102069.84
2022-08-31T20:06:46.947Z,102076.28
2022-08-31T20:09:15.631Z,102073.88
2022-08-31T20:11:47.500Z,102084.69
2022-08-31T20:14:17.111Z,102081.13
2022-08-31T20:16:46.714Z,102082.09
2022-08-31T20:19:20.715Z,102075.81
2022-08-31T20:21:54.175Z,102082.44
2022-08-31T20:24:25.509Z,102079.75
2022-08-31T20:27:01.723Z,101987.13
2022-08-31T20:29:38.235Z,102084.00
2022-08-31T20:32:08.090Z,102058.44
2022-08-31T20:34:38.568Z,102072.41
2022-08-31T20:37:07.531Z,102072.50
2022-08-31T20:39:37.268Z,102052.78
2022-08-31T20:42:07.855Z,102069.03
2022-08-31T20:44:38.109Z,102062.00
2022-08-31T20:47:27.089Z,102032.41
2022-08-31T20:50:01.222Z,102068.66
2022-08-31T20:52:32.034Z,102067.94
2022-08-31T20:55:03.434Z,102021.38
2022-08-31T20:57:33.374Z,102061.16
2022-08-31T21:00:04.127Z,102059.22
2022-08-31T21:02:33.501Z,102063.47
2022-08-31T21:05:36.446Z,102065.25
2022-08-31T21:07:53.240Z,102070.47
2022-08-31T21:10:36.571Z,102053.38
2022-08-31T21:13:10.706Z,102056.06
2022-08-31T21:15:44.688Z,102061.53
2022-08-31T21:18:17.358Z,102065.19
2022-08-31T21:20:48.494Z,102062.69
2022-08-31T21:23:17.332Z,102068.34
2022-08-31T21:25:47.326Z,102012.13
2022-08-31T21:28:18.381Z,102049.03
2022-08-31T21:30:49.538Z,102058.22
2022-08-31T21:33:18.354Z,102060.13
2022-08-31T21:35:48.405Z,102062.25
2022-08-31T21:38:18.238Z,102062.00
2022-08-31T21:40:51.209Z,102071.56
2022-08-31T21:43:20.070Z,102071.59
2022-08-31T21:45:55.007Z,101976.88
2022-08-31T21:48:23.902Z,102048.38
2022-08-31T21:50:56.099Z,102085.50
2022-08-31T21:53:27.255Z,102071.13
2022-08-31T21:55:55.669Z,102040.38
2022-08-31T21:58:24.070Z,102071.47
2022-08-31T22:00:52.629Z,102076.03
2022-08-31T22:03:22.482Z,102071.59
2022-08-31T22:05:50.982Z,102067.16
2022-08-31T22:08:21.084Z,102072.59
2022-08-31T22:10:50.149Z,102058.31
2022-08-31T22:13:19.701Z,102073.44
2022-08-31T22:15:48.277Z,102085.06
2022-08-31T22:21:07.319Z,102076.13
2022-08-31T22:23:37.379Z,102077.34
2022-08-31T22:26:05.744Z,102090.19
2022-08-31T22:28:34.824Z,102086.59
2022-08-31T22:31:04.871Z,102087.63
2022-08-31T22:33:33.279Z,102034.03
2022-08-31T22:36:01.834Z,102083.28
2022-08-31T22:38:30.214Z,102082.22
2022-08-31T22:41:04.350Z,102086.72
2022-08-31T22:43:32.820Z,102081.09
2022-08-31T22:46:01.787Z,102079.94
2022-08-31T22:48:30.364Z,102091.25
2022-08-31T22:50:58.727Z,102094.94
2022-08-31T22:53:27.170Z,102088.63
2022-08-31T22:55:55.534Z,102082.47
2022-08-31T22:58:25.310Z,102072.53
2022-08-31T23:00:53.601Z,102082.34
2022-08-31T23:03:22.270Z,102077.84
2022-08-31T23:05:52.049Z,102007.41
2022-08-31T23:08:22.364Z,102083.53
2022-08-31T23:10:50.815Z,102071.19
2022-08-31T23:13:39.114Z,102081.13
2022-08-31T23:16:09.373Z,102075.22
2022-08-31T23:18:41.603Z,102068.84
2022-08-31T23:21:09.910Z,102060.16
2022-08-31T23:23:38.142Z,102061.09
2022-08-31T23:26:09.543Z,102053.03
2022-08-31T23:28:38.745Z,102045.38
2022-08-31T23:31:09.004Z,101969.53
2022-08-31T23:33:37.881Z,102052.25
2022-08-31T23:36:07.469Z,102039.84
2022-08-31T23:38:37.948Z,102044.34
2022-08-31T23:41:06.577Z,102042.44
2022-08-31T23:43:42.074Z,102050.41
2022-08-31T23:46:12.393Z,102047.75
2022-08-31T23:48:41.268Z,102044.50
2022-08-31T23:51:10.531Z,102041.66
2022-08-31T23:53:39.367Z,102033.69
2022-08-31T23:56:09.673Z,102051.88
2022-08-31T23:58:39.984Z,102034.00
